sensor_id;sensor_type;location;lat;lon;timestamp;P1;durP1;ratioP1;P2;durP2;ratioP2
70303;SDS011;57712;48.752;11.348;2022-10-26T00:00:10;7.57;;;3.60;;
70303;SDS011;57712;48.752;11.348;2022-10-26T00:02:36;8.30;;;3.55;;
70303;SDS011;57712;48.752;11.348;2022-10-26T00:05:03;8.27;;;3.70;;
70303;SDS011;57712;48.752;11.348;2022-10-26T00:07:30;7.53;;;3.60;;
70303;SDS011;57712;48.752;11.348;2022-10-26T00:09:56;7.68;;;3.60;;
70303;SDS011;57712;48.752;11.348;2022-10-26T00:12:22;7.68;;;4.13;;
70303;SDS011;57712;48.752;11.348;2022-10-26T00:14:49;8.85;;;3.78;;
70303;SDS011;57712;48.752;11.348;2022-10-26T00:17:15;8.82;;;3.70;;
70303;SDS011;57712;48.752;11.348;2022-10-26T00:19:42;7.13;;;3.23;;
70303;SDS011;57712;48.752;11.348;2022-10-26T00:22:08;7.15;;;3.50;;
70303;SDS011;57712;48.752;11.348;2022-10-26T00:24:34;9.35;;;3.50;;
70303;SDS011;57712;48.752;11.348;2022-10-26T00:27:00;8.07;;;3.33;;
70303;SDS011;57712;48.752;11.348;2022-10-26T00:29:27;8.75;;;3.80;;
70303;SDS011;57712;48.752;11.348;2022-10-26T00:31:53;9.23;;;3.27;;
70303;SDS011;57712;48.752;11.348;2022-10-26T00:34:19;8.43;;;3.80;;
70303;SDS011;57712;48.752;11.348;2022-10-26T00:36:46;9.48;;;4.25;;
70303;SDS011;57712;48.752;11.348;2022-10-26T00:39:12;9.65;;;3.97;;
70303;SDS011;57712;48.752;11.348;2022-10-26T00:41:39;6.88;;;3.15;;
70303;SDS011;57712;48.752;11.348;2022-10-26T00:47:20;8.98;;;3.92;;
70303;SDS011;57712;48.752;11.348;2022-10-26T00:49:53;8.18;;;4.32;;
70303;SDS011;57712;48.752;11.348;2022-10-26T00:52:22;9.27;;;4.57;;
70303;SDS011;57712;48.752;11.348;2022-10-26T00:54:50;8.75;;;4.13;;
70303;SDS011;57712;48.752;11.348;2022-10-26T00:57:17;8.20;;;4.80;;
70303;SDS011;57712;48.752;11.348;2022-10-26T00:59:44;10.35;;;4.70;;
70303;SDS011;57712;48.752;11.348;2022-10-26T01:02:11;8.80;;;4.55;;
70303;SDS011;57712;48.752;11.348;2022-10-26T01:04:38;12.32;;;4.63;;
70303;SDS011;57712;48.752;11.348;2022-10-26T01:07:05;9.35;;;4.35;;
70303;SDS011;57712;48.752;11.348;2022-10-26T01:09:33;9.80;;;3.97;;
70303;SDS011;57712;48.752;11.348;2022-10-26T01:12:01;9.90;;;4.22;;
70303;SDS011;57712;48.752;11.348;2022-10-26T01:14:27;7.70;;;3.35;;
70303;SDS011;57712;48.752;11.348;2022-10-26T01:16:57;7.68;;;3.65;;
70303;SDS011;57712;48.752;11.348;2022-10-26T01:22:18;6.77;;;3.40;;
70303;SDS011;57712;48.752;11.348;2022-10-26T01:24:54;8.48;;;2.92;;
70303;SDS011;57712;48.752;11.348;2022-10-26T01:27:40;8.07;;;2.83;;
70303;SDS011;57712;48.752;11.348;2022-10-26T01:30:24;9.13;;;3.20;;
70303;SDS011;57712;48.752;11.348;2022-10-26T01:35:37;8.30;;;3.20;;
70303;SDS011;57712;48.752;11.348;2022-10-26T01:38:16;7.80;;;3.10;;
70303;SDS011;57712;48.752;11.348;2022-10-26T01:43:42;6.40;;;3.22;;
70303;SDS011;57712;48.752;11.348;2022-10-26T01:46:13;6.63;;;3.35;;
70303;SDS011;57712;48.752;11.348;2022-10-26T01:48:42;8.57;;;3.30;;
70303;SDS011;57712;48.752;11.348;2022-10-26T01:51:10;10.55;;;4.00;;
70303;SDS011;57712;48.752;11.348;2022-10-26T01:53:44;10.13;;;3.78;;
70303;SDS011;57712;48.752;11.348;2022-10-26T01:56:21;10.40;;;3.70;;
70303;SDS011;57712;48.752;11.348;2022-10-26T02:01:37;9.17;;;3.50;;
70303;SDS011;57712;48.752;11.348;2022-10-26T02:04:17;7.28;;;3.30;;
70303;SDS011;57712;48.752;11.348;2022-10-26T02:12:49;9.07;;;3.50;;
70303;SDS011;57712;48.752;11.348;2022-10-26T02:15:22;10.17;;;3.90;;
70303;SDS011;57712;48.752;11.348;2022-10-26T02:18:06;8.10;;;3.08;;
70303;SDS011;57712;48.752;11.348;2022-10-26T02:20:45;8.13;;;3.35;;
70303;SDS011;57712;48.752;11.348;2022-10-26T02:23:16;6.60;;;3.10;;
70303;SDS011;57712;48.752;11.348;2022-10-26T02:25:46;9.40;;;3.55;;
70303;SDS011;57712;48.752;11.348;2022-10-26T02:28:17;9.53;;;4.10;;
70303;SDS011;57712;48.752;11.348;2022-10-26T02:30:46;7.72;;;3.40;;
70303;SDS011;57712;48.752;11.348;2022-10-26T02:33:17;7.60;;;3.22;;
70303;SDS011;57712;48.752;11.348;2022-10-26T02:35:47;9.00;;;3.08;;
70303;SDS011;57712;48.752;11.348;2022-10-26T02:38:19;8.45;;;2.90;;
70303;SDS011;57712;48.752;11.348;2022-10-26T02:40:48;8.73;;;2.97;;
70303;SDS011;57712;48.752;11.348;2022-10-26T02:43:17;8.48;;;3.30;;
70303;SDS011;57712;48.752;11.348;2022-10-26T02:45:48;7.05;;;2.92;;
70303;SDS011;57712;48.752;11.348;2022-10-26T02:48:18;8.02;;;3.00;;
70303;SDS011;57712;48.752;11.348;2022-10-26T02:50:50;7.55;;;2.92;;
70303;SDS011;57712;48.752;11.348;2022-10-26T02:56:10;7.10;;;2.50;;
70303;SDS011;57712;48.752;11.348;2022-10-26T02:58:44;8.50;;;3.10;;
70303;SDS011;57712;48.752;11.348;2022-10-26T03:01:14;7.20;;;2.65;;
70303;SDS011;57712;48.752;11.348;2022-10-26T03:03:41;7.55;;;3.13;;
70303;SDS011;57712;48.752;11.348;2022-10-26T03:06:07;9.07;;;3.10;;
70303;SDS011;57712;48.752;11.348;2022-10-26T03:08:33;9.15;;;3.30;;
70303;SDS011;57712;48.752;11.348;2022-10-26T03:11:00;9.77;;;3.63;;
70303;SDS011;57712;48.752;11.348;2022-10-26T03:13:26;6.45;;;2.78;;
70303;SDS011;57712;48.752;11.348;2022-10-26T03:15:55;7.38;;;3.05;;
70303;SDS011;57712;48.752;11.348;2022-10-26T03:18:22;7.90;;;3.40;;
70303;SDS011;57712;48.752;11.348;2022-10-26T03:20:48;7.43;;;3.50;;
70303;SDS011;57712;48.752;11.348;2022-10-26T03:23:15;7.40;;;3.03;;
70303;SDS011;57712;48.752;11.348;2022-10-26T03:25:41;8.75;;;3.28;;
70303;SDS011;57712;48.752;11.348;2022-10-26T03:28:07;8.18;;;3.38;;
70303;SDS011;57712;48.752;11.348;2022-10-26T03:30:34;7.07;;;3.07;;
70303;SDS011;57712;48.752;11.348;2022-10-26T03:33:00;8.27;;;3.22;;
70303;SDS011;57712;48.752;11.348;2022-10-26T03:35:26;7.32;;;3.20;;
70303;SDS011;57712;48.752;11.348;2022-10-26T03:37:53;8.90;;;2.95;;
70303;SDS011;57712;48.752;11.348;2022-10-26T03:40:19;9.18;;;3.33;;
70303;SDS011;57712;48.752;11.348;2022-10-26T03:42:46;6.77;;;2.97;;
70303;SDS011;57712;48.752;11.348;2022-10-26T03:45:13;8.65;;;3.47;;
70303;SDS011;57712;48.752;11.348;2022-10-26T03:47:42;6.28;;;3.13;;
70303;SDS011;57712;48.752;11.348;2022-10-26T03:50:13;7.35;;;3.55;;
70303;SDS011;57712;48.752;11.348;2022-10-26T03:52:41;7.53;;;3.60;;
70303;SDS011;57712;48.752;11.348;2022-10-26T03:55:08;9.60;;;3.80;;
70303;SDS011;57712;48.752;11.348;2022-10-26T03:57:39;8.80;;;3.65;;
70303;SDS011;57712;48.752;11.348;2022-10-26T04:00:07;7.32;;;3.13;;
70303;SDS011;57712;48.752;11.348;2022-10-26T04:02:34;9.35;;;3.63;;
70303;SDS011;57712;48.752;11.348;2022-10-26T04:05:01;9.25;;;3.70;;
70303;SDS011;57712;48.752;11.348;2022-10-26T04:07:27;8.13;;;3.77;;
70303;SDS011;57712;48.752;11.348;2022-10-26T04:09:53;8.20;;;3.60;;
70303;SDS011;57712;48.752;11.348;2022-10-26T04:12:20;8.77;;;3.25;;
70303;SDS011;57712;48.752;11.348;2022-10-26T04:14:46;9.75;;;3.75;;
70303;SDS011;57712;48.752;11.348;2022-10-26T04:17:12;8.02;;;3.30;;
70303;SDS011;57712;48.752;11.348;2022-10-26T04:19:39;7.60;;;3.67;;
70303;SDS011;57712;48.752;11.348;2022-10-26T04:22:05;7.80;;;3.85;;
70303;SDS011;57712;48.752;11.348;2022-10-26T04:24:31;8.60;;;3.78;;
70303;SDS011;57712;48.752;11.348;2022-10-26T04:26:57;8.82;;;3.55;;
70303;SDS011;57712;48.752;11.348;2022-10-26T04:29:24;8.02;;;3.70;;
70303;SDS011;57712;48.752;11.348;2022-10-26T04:31:50;8.17;;;4.17;;
70303;SDS011;57712;48.752;11.348;2022-10-26T04:34:16;11.90;;;4.15;;
70303;SDS011;57712;48.752;11.348;2022-10-26T04:36:43;7.55;;;3.45;;
70303;SDS011;57712;48.752;11.348;2022-10-26T04:39:09;8.00;;;3.72;;
70303;SDS011;57712;48.752;11.348;2022-10-26T04:41:35;9.93;;;3.85;;
70303;SDS011;57712;48.752;11.348;2022-10-26T04:44:02;8.80;;;4.00;;
70303;SDS011;57712;48.752;11.348;2022-10-26T04:46:28;8.73;;;3.95;;
70303;SDS011;57712;48.752;11.348;2022-10-26T04:48:54;8.20;;;3.50;;
70303;SDS011;57712;48.752;11.348;2022-10-26T04:51:20;9.90;;;4.15;;
70303;SDS011;57712;48.752;11.348;2022-10-26T04:53:47;10.70;;;4.35;;
70303;SDS011;57712;48.752;11.348;2022-10-26T04:56:13;9.00;;;4.30;;
70303;SDS011;57712;48.752;11.348;2022-10-26T04:58:39;8.23;;;4.05;;
70303;SDS011;57712;48.752;11.348;2022-10-26T05:01:06;8.85;;;3.67;;
70303;SDS011;57712;48.752;11.348;2022-10-26T05:03:32;10.15;;;3.88;;
70303;SDS011;57712;48.752;11.348;2022-10-26T05:05:58;8.63;;;3.80;;
70303;SDS011;57712;48.752;11.348;2022-10-26T05:08:26;8.43;;;4.20;;
70303;SDS011;57712;48.752;11.348;2022-10-26T05:10:54;9.23;;;4.60;;
70303;SDS011;57712;48.752;11.348;2022-10-26T05:13:21;8.45;;;4.45;;
70303;SDS011;57712;48.752;11.348;2022-10-26T05:15:47;11.18;;;4.25;;
70303;SDS011;57712;48.752;11.348;2022-10-26T05:18:13;7.35;;;3.90;;
70303;SDS011;57712;48.752;11.348;2022-10-26T05:20:40;8.80;;;3.83;;
70303;SDS011;57712;48.752;11.348;2022-10-26T05:23:08;8.73;;;3.53;;
70303;SDS011;57712;48.752;11.348;2022-10-26T05:25:36;8.95;;;4.00;;
70303;SDS011;57712;48.752;11.348;2022-10-26T05:28:05;7.85;;;3.97;;
70303;SDS011;57712;48.752;11.348;2022-10-26T05:30:34;11.52;;;4.72;;
70303;SDS011;57712;48.752;11.348;2022-10-26T05:33:01;10.73;;;4.13;;
70303;SDS011;57712;48.752;11.348;2022-10-26T05:35:31;9.57;;;4.05;;
70303;SDS011;57712;48.752;11.348;2022-10-26T05:37:57;9.25;;;4.20;;
70303;SDS011;57712;48.752;11.348;2022-10-26T05:40:24;9.05;;;4.47;;
70303;SDS011;57712;48.752;11.348;2022-10-26T05:42:51;8.73;;;3.60;;
70303;SDS011;57712;48.752;11.348;2022-10-26T05:45:18;9.73;;;5.00;;
70303;SDS011;57712;48.752;11.348;2022-10-26T05:47:44;8.80;;;4.50;;
70303;SDS011;57712;48.752;11.348;2022-10-26T05:50:11;9.95;;;5.38;;
70303;SDS011;57712;48.752;11.348;2022-10-26T05:52:39;9.88;;;4.90;;
70303;SDS011;57712;48.752;11.348;2022-10-26T05:55:06;10.07;;;4.80;;
70303;SDS011;57712;48.752;11.348;2022-10-26T05:57:34;9.07;;;4.23;;
70303;SDS011;57712;48.752;11.348;2022-10-26T06:00:01;10.70;;;5.65;;
70303;SDS011;57712;48.752;11.348;2022-10-26T06:02:32;21.25;;;10.02;;
70303;SDS011;57712;48.752;11.348;2022-10-26T06:05:09;22.45;;;9.88;;
70303;SDS011;57712;48.752;11.348;2022-10-26T06:07:38;15.80;;;6.80;;
70303;SDS011;57712;48.752;11.348;2022-10-26T06:10:05;10.40;;;5.50;;
70303;SDS011;57712;48.752;11.348;2022-10-26T06:12:32;9.32;;;5.68;;
70303;SDS011;57712;48.752;11.348;2022-10-26T06:14:58;11.90;;;5.57;;
70303;SDS011;57712;48.752;11.348;2022-10-26T06:20:15;12.38;;;5.30;;
70303;SDS011;57712;48.752;11.348;2022-10-26T06:28:54;11.05;;;6.38;;
70303;SDS011;57712;48.752;11.348;2022-10-26T06:31:43;17.48;;;7.68;;
70303;SDS011;57712;48.752;11.348;2022-10-26T06:34:10;12.02;;;5.75;;
70303;SDS011;57712;48.752;11.348;2022-10-26T06:36:40;13.13;;;6.13;;
70303;SDS011;57712;48.752;11.348;2022-10-26T06:39:09;8.80;;;5.28;;
70303;SDS011;57712;48.752;11.348;2022-10-26T06:41:37;13.77;;;5.65;;
70303;SDS011;57712;48.752;11.348;2022-10-26T06:44:03;17.40;;;5.70;;
70303;SDS011;57712;48.752;11.348;2022-10-26T06:46:40;11.07;;;5.15;;
70303;SDS011;57712;48.752;11.348;2022-10-26T06:51:57;12.52;;;5.18;;
70303;SDS011;57712;48.752;11.348;2022-10-26T06:54:52;9.40;;;5.10;;
70303;SDS011;57712;48.752;11.348;2022-10-26T06:57:22;12.43;;;4.80;;
70303;SDS011;57712;48.752;11.348;2022-10-26T06:59:56;10.68;;;4.93;;
70303;SDS011;57712;48.752;11.348;2022-10-26T07:02:25;11.30;;;4.87;;
70303;SDS011;57712;48.752;11.348;2022-10-26T07:04:52;10.23;;;4.63;;
70303;SDS011;57712;48.752;11.348;2022-10-26T07:07:19;8.52;;;4.55;;
70303;SDS011;57712;48.752;11.348;2022-10-26T07:09:48;9.88;;;5.30;;
70303;SDS011;57712;48.752;11.348;2022-10-26T07:12:15;10.15;;;4.50;;
70303;SDS011;57712;48.752;11.348;2022-10-26T07:14:41;8.43;;;4.43;;
70303;SDS011;57712;48.752;11.348;2022-10-26T07:17:07;7.30;;;4.05;;
70303;SDS011;57712;48.752;11.348;2022-10-26T07:19:34;10.05;;;4.25;;
70303;SDS011;57712;48.752;11.348;2022-10-26T07:22:01;8.10;;;4.13;;
70303;SDS011;57712;48.752;11.348;2022-10-26T07:24:27;9.40;;;3.80;;
70303;SDS011;57712;48.752;11.348;2022-10-26T07:26:55;11.13;;;5.90;;
70303;SDS011;57712;48.752;11.348;2022-10-26T07:29:22;15.73;;;8.75;;
70303;SDS011;57712;48.752;11.348;2022-10-26T07:31:50;10.30;;;4.90;;
70303;SDS011;57712;48.752;11.348;2022-10-26T07:34:22;9.07;;;4.40;;
70303;SDS011;57712;48.752;11.348;2022-10-26T07:36:48;9.55;;;4.30;;
70303;SDS011;57712;48.752;11.348;2022-10-26T07:39:16;9.27;;;5.40;;
70303;SDS011;57712;48.752;11.348;2022-10-26T07:41:43;8.52;;;6.07;;
70303;SDS011;57712;48.752;11.348;2022-10-26T07:44:10;9.30;;;6.68;;
70303;SDS011;57712;48.752;11.348;2022-10-26T07:46:36;11.98;;;7.75;;
70303;SDS011;57712;48.752;11.348;2022-10-26T07:49:02;9.85;;;4.35;;
70303;SDS011;57712;48.752;11.348;2022-10-26T07:51:29;9.47;;;3.77;;
70303;SDS011;57712;48.752;11.348;2022-10-26T07:53:55;9.38;;;4.45;;
70303;SDS011;57712;48.752;11.348;2022-10-26T07:56:21;8.95;;;3.78;;
70303;SDS011;57712;48.752;11.348;2022-10-26T07:58:50;10.00;;;4.07;;
70303;SDS011;57712;48.752;11.348;2022-10-26T08:01:17;7.65;;;4.25;;
70303;SDS011;57712;48.752;11.348;2022-10-26T08:03:44;7.23;;;4.40;;
70303;SDS011;57712;48.752;11.348;2022-10-26T08:06:10;7.45;;;3.75;;
70303;SDS011;57712;48.752;11.348;2022-10-26T08:08:37;7.32;;;4.25;;
70303;SDS011;57712;48.752;11.348;2022-10-26T08:11:08;6.30;;;3.78;;
70303;SDS011;57712;48.752;11.348;2022-10-26T08:13:34;10.38;;;3.60;;
70303;SDS011;57712;48.752;11.348;2022-10-26T08:16:02;7.30;;;4.17;;
70303;SDS011;57712;48.752;11.348;2022-10-26T08:18:30;6.38;;;3.63;;
70303;SDS011;57712;48.752;11.348;2022-10-26T08:21:03;7.60;;;3.55;;
70303;SDS011;57712;48.752;11.348;2022-10-26T08:23:36;7.07;;;3.67;;
70303;SDS011;57712;48.752;11.348;2022-10-26T08:26:03;7.55;;;3.80;;
70303;SDS011;57712;48.752;11.348;2022-10-26T08:28:30;8.00;;;3.53;;
70303;SDS011;57712;48.752;11.348;2022-10-26T08:30:56;9.65;;;4.38;;
70303;SDS011;57712;48.752;11.348;2022-10-26T08:33:23;8.10;;;4.30;;
70303;SDS011;57712;48.752;11.348;2022-10-26T08:35:56;10.23;;;4.50;;
70303;SDS011;57712;48.752;11.348;2022-10-26T08:38:24;10.43;;;4.63;;
70303;SDS011;57712;48.752;11.348;2022-10-26T08:40:51;7.17;;;3.50;;
70303;SDS011;57712;48.752;11.348;2022-10-26T08:43:21;8.68;;;3.70;;
70303;SDS011;57712;48.752;11.348;2022-10-26T08:45:54;10.70;;;4.45;;
70303;SDS011;57712;48.752;11.348;2022-10-26T08:48:31;8.23;;;4.07;;
70303;SDS011;57712;48.752;11.348;2022-10-26T08:51:03;8.98;;;4.30;;
70303;SDS011;57712;48.752;11.348;2022-10-26T08:53:45;7.87;;;3.80;;
70303;SDS011;57712;48.752;11.348;2022-10-26T08:56:25;7.65;;;3.60;;
70303;SDS011;57712;48.752;11.348;2022-10-26T08:58:55;9.10;;;3.78;;
70303;SDS011;57712;48.752;11.348;2022-10-26T09:01:24;10.65;;;4.13;;
70303;SDS011;57712;48.752;11.348;2022-10-26T09:03:50;9.45;;;3.72;;
70303;SDS011;57712;48.752;11.348;2022-10-26T09:09:06;12.70;;;7.43;;
70303;SDS011;57712;48.752;11.348;2022-10-26T09:11:44;10.68;;;5.38;;
70303;SDS011;57712;48.752;11.348;2022-10-26T09:17:22;9.02;;;4.03;;
70303;SDS011;57712;48.752;11.348;2022-10-26T09:25:16;6.47;;;3.58;;
70303;SDS011;57712;48.752;11.348;2022-10-26T09:27:51;8.07;;;4.20;;
70303;SDS011;57712;48.752;11.348;2022-10-26T09:30:21;7.97;;;4.03;;
70303;SDS011;57712;48.752;11.348;2022-10-26T09:32:51;9.10;;;4.60;;
70303;SDS011;57712;48.752;11.348;2022-10-26T09:35:28;6.30;;;3.78;;
70303;SDS011;57712;48.752;11.348;2022-10-26T09:38:12;7.00;;;3.67;;
70303;SDS011;57712;48.752;11.348;2022-10-26T09:40:53;9.05;;;3.70;;
70303;SDS011;57712;48.752;11.348;2022-10-26T09:45:53;7.57;;;3.60;;
70303;SDS011;57712;48.752;11.348;2022-10-26T09:48:27;9.23;;;4.10;;
70303;SDS011;57712;48.752;11.348;2022-10-26T09:51:01;7.53;;;3.75;;
70303;SDS011;57712;48.752;11.348;2022-10-26T09:53:30;10.38;;;3.13;;
70303;SDS011;57712;48.752;11.348;2022-10-26T09:56:00;6.53;;;3.13;;
70303;SDS011;57712;48.752;11.348;2022-10-26T09:58:31;6.97;;;2.60;;
70303;SDS011;57712;48.752;11.348;2022-10-26T10:01:02;5.97;;;2.97;;
70303;SDS011;57712;48.752;11.348;2022-10-26T10:03:29;6.78;;;2.88;;
70303;SDS011;57712;48.752;11.348;2022-10-26T10:08:40;7.60;;;3.13;;
70303;SDS011;57712;48.752;11.348;2022-10-26T10:11:09;7.47;;;2.70;;
70303;SDS011;57712;48.752;11.348;2022-10-26T10:13:41;7.38;;;2.50;;
70303;SDS011;57712;48.752;11.348;2022-10-26T10:18:36;6.00;;;2.90;;
70303;SDS011;57712;48.752;11.348;2022-10-26T10:21:04;7.07;;;2.55;;
70303;SDS011;57712;48.752;11.348;2022-10-26T10:23:33;5.30;;;2.50;;
70303;SDS011;57712;48.752;11.348;2022-10-26T10:26:04;7.78;;;3.22;;
70303;SDS011;57712;48.752;11.348;2022-10-26T10:28:36;6.72;;;2.63;;
70303;SDS011;57712;48.752;11.348;2022-10-26T10:31:17;5.38;;;2.70;;
70303;SDS011;57712;48.752;11.348;2022-10-26T10:33:46;5.47;;;2.70;;
70303;SDS011;57712;48.752;11.348;2022-10-26T10:36:15;6.10;;;2.30;;
70303;SDS011;57712;48.752;11.348;2022-10-26T10:38:57;7.55;;;2.85;;
70303;SDS011;57712;48.752;11.348;2022-10-26T10:41:29;6.25;;;2.70;;
70303;SDS011;57712;48.752;11.348;2022-10-26T10:44:12;6.90;;;2.40;;
70303;SDS011;57712;48.752;11.348;2022-10-26T10:46:46;7.40;;;2.67;;
70303;SDS011;57712;48.752;11.348;2022-10-26T10:49:19;8.10;;;2.97;;
70303;SDS011;57712;48.752;11.348;2022-10-26T10:51:50;6.35;;;2.45;;
70303;SDS011;57712;48.752;11.348;2022-10-26T10:54:19;5.60;;;2.58;;
70303;SDS011;57712;48.752;11.348;2022-10-26T11:00:10;6.85;;;2.97;;
70303;SDS011;57712;48.752;11.348;2022-10-26T11:08:56;7.40;;;2.72;;
70303;SDS011;57712;48.752;11.348;2022-10-26T11:14:05;6.82;;;2.55;;
70303;SDS011;57712;48.752;11.348;2022-10-26T11:16:35;6.37;;;2.57;;
70303;SDS011;57712;48.752;11.348;2022-10-26T11:22:01;7.78;;;2.83;;
70303;SDS011;57712;48.752;11.348;2022-10-26T11:24:41;7.18;;;2.17;;
70303;SDS011;57712;48.752;11.348;2022-10-26T11:27:14;6.75;;;2.42;;
70303;SDS011;57712;48.752;11.348;2022-10-26T11:29:46;5.90;;;2.17;;
70303;SDS011;57712;48.752;11.348;2022-10-26T11:32:33;8.80;;;2.83;;
70303;SDS011;57712;48.752;11.348;2022-10-26T11:37:50;6.75;;;2.60;;
70303;SDS011;57712;48.752;11.348;2022-10-26T11:40:33;5.35;;;2.47;;
70303;SDS011;57712;48.752;11.348;2022-10-26T11:43:17;6.43;;;2.40;;
70303;SDS011;57712;48.752;11.348;2022-10-26T11:48:50;9.50;;;2.70;;
70303;SDS011;57712;48.752;11.348;2022-10-26T11:51:37;7.40;;;2.50;;
70303;SDS011;57712;48.752;11.348;2022-10-26T11:54:14;6.80;;;3.05;;
70303;SDS011;57712;48.752;11.348;2022-10-26T11:56:50;6.20;;;2.27;;
70303;SDS011;57712;48.752;11.348;2022-10-26T11:59:20;6.22;;;1.95;;
70303;SDS011;57712;48.752;11.348;2022-10-26T12:02:16;9.88;;;3.20;;
70303;SDS011;57712;48.752;11.348;2022-10-26T12:04:45;5.63;;;2.28;;
70303;SDS011;57712;48.752;11.348;2022-10-26T12:07:21;6.80;;;2.28;;
70303;SDS011;57712;48.752;11.348;2022-10-26T12:09:52;9.13;;;2.30;;
70303;SDS011;57712;48.752;11.348;2022-10-26T12:12:25;7.63;;;2.38;;
70303;SDS011;57712;48.752;11.348;2022-10-26T12:15:29;13.07;;;2.70;;
70303;SDS011;57712;48.752;11.348;2022-10-26T12:21:15;8.95;;;2.47;;
70303;SDS011;57712;48.752;11.348;2022-10-26T12:23:56;7.07;;;2.77;;
70303;SDS011;57712;48.752;11.348;2022-10-26T12:34:02;5.97;;;2.55;;
70303;SDS011;57712;48.752;11.348;2022-10-26T12:39:41;7.85;;;3.40;;
70303;SDS011;57712;48.752;11.348;2022-10-26T12:47:06;6.50;;;1.83;;
70303;SDS011;57712;48.752;11.348;2022-10-26T12:52:26;5.47;;;2.30;;
70303;SDS011;57712;48.752;11.348;2022-10-26T12:55:02;8.80;;;2.72;;
70303;SDS011;57712;48.752;11.348;2022-10-26T13:00:40;7.70;;;2.40;;
70303;SDS011;57712;48.752;11.348;2022-10-26T13:03:20;12.67;;;2.37;;
70303;SDS011;57712;48.752;11.348;2022-10-26T13:08:55;9.05;;;2.72;;
70303;SDS011;57712;48.752;11.348;2022-10-26T13:11:31;8.07;;;2.35;;
70303;SDS011;57712;48.752;11.348;2022-10-26T13:14:01;7.05;;;2.60;;
70303;SDS011;57712;48.752;11.348;2022-10-26T13:16:30;8.53;;;2.43;;
70303;SDS011;57712;48.752;11.348;2022-10-26T13:18:57;6.45;;;2.20;;
70303;SDS011;57712;48.752;11.348;2022-10-26T13:21:24;6.10;;;2.50;;
70303;SDS011;57712;48.752;11.348;2022-10-26T13:26:20;6.57;;;2.40;;
70303;SDS011;57712;48.752;11.348;2022-10-26T13:28:50;7.50;;;2.60;;
70303;SDS011;57712;48.752;11.348;2022-10-26T13:33:52;9.00;;;2.78;;
70303;SDS011;57712;48.752;11.348;2022-10-26T13:36:37;9.07;;;2.33;;
70303;SDS011;57712;48.752;11.348;2022-10-26T13:39:16;5.90;;;2.20;;
70303;SDS011;57712;48.752;11.348;2022-10-26T13:41:45;8.67;;;2.70;;
70303;SDS011;57712;48.752;11.348;2022-10-26T13:47:03;8.98;;;2.80;;
70303;SDS011;57712;48.752;11.348;2022-10-26T13:49:41;8.88;;;2.85;;
70303;SDS011;57712;48.752;11.348;2022-10-26T13:52:18;6.65;;;2.78;;
70303;SDS011;57712;48.752;11.348;2022-10-26T13:54:55;7.27;;;2.57;;
70303;SDS011;57712;48.752;11.348;2022-10-26T13:57:27;8.68;;;2.63;;
70303;SDS011;57712;48.752;11.348;2022-10-26T13:59:57;8.13;;;2.08;;
70303;SDS011;57712;48.752;11.348;2022-10-26T14:02:29;9.23;;;2.75;;
70303;SDS011;57712;48.752;11.348;2022-10-26T14:04:59;7.30;;;2.58;;
70303;SDS011;57712;48.752;11.348;2022-10-26T14:07:33;6.50;;;2.60;;
70303;SDS011;57712;48.752;11.348;2022-10-26T14:10:04;5.80;;;1.80;;
70303;SDS011;57712;48.752;11.348;2022-10-26T14:12:31;8.95;;;2.40;;
70303;SDS011;57712;48.752;11.348;2022-10-26T14:15:02;9.10;;;3.00;;
70303;SDS011;57712;48.752;11.348;2022-10-26T14:17:32;8.98;;;2.75;;
70303;SDS011;57712;48.752;11.348;2022-10-26T14:19:59;6.27;;;2.53;;
70303;SDS011;57712;48.752;11.348;2022-10-26T14:22:26;11.18;;;2.75;;
70303;SDS011;57712;48.752;11.348;2022-10-26T14:24:59;7.97;;;2.55;;
70303;SDS011;57712;48.752;11.348;2022-10-26T14:27:29;8.75;;;2.53;;
70303;SDS011;57712;48.752;11.348;2022-10-26T14:29:57;10.65;;;2.85;;
70303;SDS011;57712;48.752;11.348;2022-10-26T14:32:45;6.93;;;2.30;;
70303;SDS011;57712;48.752;11.348;2022-10-26T14:35:12;7.70;;;2.22;;
70303;SDS011;57712;48.752;11.348;2022-10-26T14:37:47;8.43;;;2.38;;
70303;SDS011;57712;48.752;11.348;2022-10-26T14:40:18;9.15;;;2.80;;
70303;SDS011;57712;48.752;11.348;2022-10-26T14:42:48;6.85;;;2.22;;
70303;SDS011;57712;48.752;11.348;2022-10-26T14:45:20;9.20;;;2.90;;
70303;SDS011;57712;48.752;11.348;2022-10-26T14:47:55;10.80;;;2.60;;
70303;SDS011;57712;48.752;11.348;2022-10-26T14:50:22;7.50;;;2.60;;
70303;SDS011;57712;48.752;11.348;2022-10-26T14:52:52;7.47;;;2.40;;
70303;SDS011;57712;48.752;11.348;2022-10-26T14:55:20;11.43;;;2.70;;
70303;SDS011;57712;48.752;11.348;2022-10-26T14:57:50;6.27;;;2.33;;
70303;SDS011;57712;48.752;11.348;2022-10-26T15:00:23;12.43;;;3.35;;
70303;SDS011;57712;48.752;11.348;2022-10-26T15:02:51;11.10;;;3.05;;
70303;SDS011;57712;48.752;11.348;2022-10-26T15:07:52;13.20;;;3.65;;
70303;SDS011;57712;48.752;11.348;2022-10-26T15:15:52;8.98;;;2.95;;
70303;SDS011;57712;48.752;11.348;2022-10-26T15:18:24;11.88;;;3.92;;
70303;SDS011;57712;48.752;11.348;2022-10-26T15:20:54;10.45;;;4.05;;
70303;SDS011;57712;48.752;11.348;2022-10-26T15:23:22;10.03;;;3.90;;
70303;SDS011;57712;48.752;11.348;2022-10-26T15:25:52;11.10;;;4.10;;
70303;SDS011;57712;48.752;11.348;2022-10-26T15:28:24;9.40;;;3.65;;
70303;SDS011;57712;48.752;11.348;2022-10-26T15:33:36;10.57;;;3.70;;
70303;SDS011;57712;48.752;11.348;2022-10-26T15:36:10;9.83;;;3.83;;
70303;SDS011;57712;48.752;11.348;2022-10-26T15:38:41;11.85;;;4.35;;
70303;SDS011;57712;48.752;11.348;2022-10-26T15:41:22;11.27;;;4.03;;
70303;SDS011;57712;48.752;11.348;2022-10-26T15:43:51;10.60;;;3.95;;
70303;SDS011;57712;48.752;11.348;2022-10-26T15:46:21;10.43;;;3.50;;
70303;SDS011;57712;48.752;11.348;2022-10-26T15:48:53;8.30;;;3.10;;
70303;SDS011;57712;48.752;11.348;2022-10-26T15:51:21;9.68;;;3.22;;
70303;SDS011;57712;48.752;11.348;2022-10-26T15:53:48;9.30;;;3.88;;
70303;SDS011;57712;48.752;11.348;2022-10-26T15:56:19;12.30;;;4.10;;
70303;SDS011;57712;48.752;11.348;2022-10-26T15:58:48;10.05;;;3.67;;
70303;SDS011;57712;48.752;11.348;2022-10-26T16:01:16;8.83;;;3.13;;
70303;SDS011;57712;48.752;11.348;2022-10-26T16:03:45;9.32;;;3.40;;
70303;SDS011;57712;48.752;11.348;2022-10-26T16:06:25;11.20;;;3.80;;
70303;SDS011;57712;48.752;11.348;2022-10-26T16:08:55;10.00;;;3.08;;
70303;SDS011;57712;48.752;11.348;2022-10-26T16:11:23;9.95;;;3.13;;
70303;SDS011;57712;48.752;11.348;2022-10-26T16:13:50;9.60;;;3.67;;
70303;SDS011;57712;48.752;11.348;2022-10-26T16:16:17;6.72;;;2.97;;
70303;SDS011;57712;48.752;11.348;2022-10-26T16:18:45;8.85;;;3.50;;
70303;SDS011;57712;48.752;11.348;2022-10-26T16:21:12;11.25;;;3.15;;
70303;SDS011;57712;48.752;11.348;2022-10-26T16:23:47;8.07;;;3.25;;
70303;SDS011;57712;48.752;11.348;2022-10-26T16:26:14;10.63;;;3.60;;
70303;SDS011;57712;48.752;11.348;2022-10-26T16:28:41;8.90;;;3.20;;
70303;SDS011;57712;48.752;11.348;2022-10-26T16:31:12;8.98;;;3.08;;
70303;SDS011;57712;48.752;11.348;2022-10-26T16:33:41;7.88;;;3.22;;
70303;SDS011;57712;48.752;11.348;2022-10-26T16:36:08;8.95;;;3.65;;
70303;SDS011;57712;48.752;11.348;2022-10-26T16:38:36;8.27;;;3.50;;
70303;SDS011;57712;48.752;11.348;2022-10-26T16:41:03;9.70;;;3.33;;
70303;SDS011;57712;48.752;11.348;2022-10-26T16:43:35;8.73;;;4.00;;
70303;SDS011;57712;48.752;11.348;2022-10-26T16:46:06;12.52;;;6.53;;
70303;SDS011;57712;48.752;11.348;2022-10-26T16:48:40;10.82;;;5.78;;